createdAt,value
2022-08-23T00:01:39.364Z,16.57
2022-08-23T00:04:09.220Z,16.60
2022-08-23T00:06:38.411Z,16.62
2022-08-23T00:09:07.100Z,16.70
2022-08-23T00:11:38.111Z,16.72
2022-08-23T00:14:08.478Z,16.71
2022-08-23T00:16:35.416Z,16.61
2022-08-23T00:19:02.581Z,16.53
2022-08-23T00:21:30.146Z,16.39
2022-08-23T00:23:57.147Z,16.32
2022-08-23T00:26:26.152Z,16.31
2022-08-23T00:28:53.039Z,16.28
2022-08-23T00:31:20.076Z,16.22
2022-08-23T00:33:47.074Z,16.21
2022-08-23T00:36:13.789Z,16.21
2022-08-23T00:38:40.670Z,16.22
2022-08-23T00:41:07.685Z,16.24
2022-08-23T00:43:58.189Z,16.22
2022-08-23T00:46:56.570Z,16.12
2022-08-23T00:49:24.386Z,16.10
2022-08-23T00:51:57.890Z,16.11
2022-08-23T00:54:28.028Z,16.14
2022-08-23T00:56:57.661Z,16.16
2022-08-23T00:59:26.275Z,16.18
2022-08-23T01:01:53.465Z,16.13
2022-08-23T01:04:20.818Z,16.10
2022-08-23T01:06:53.653Z,16.13
2022-08-23T01:09:21.291Z,16.10
2022-08-23T01:11:52.995Z,16.12
2022-08-23T01:14:27.142Z,16.15
2022-08-23T01:16:57.599Z,16.16
2022-08-23T01:19:31.749Z,16.16
2022-08-23T01:22:03.696Z,16.07
2022-08-23T01:25:05.771Z,15.94
2022-08-23T01:27:19.434Z,15.77
2022-08-23T01:29:47.394Z,15.68
2022-08-23T01:32:14.871Z,15.68
2022-08-23T01:34:45.420Z,15.66
2022-08-23T01:37:21.188Z,15.57
2022-08-23T01:39:50.035Z,15.48
2022-08-23T01:42:16.859Z,15.36
2022-08-23T01:44:43.727Z,15.29
2022-08-23T01:47:10.396Z,15.31
2022-08-23T01:49:37.403Z,15.32
2022-08-23T01:52:04.226Z,15.40
2022-08-23T01:54:31.022Z,15.46
2022-08-23T01:57:01.689Z,15.52
2022-08-23T01:59:28.771Z,15.51
2022-08-23T02:01:55.722Z,15.53
2022-08-23T02:04:22.888Z,15.55
2022-08-23T02:06:49.858Z,15.48
2022-08-23T02:09:20.649Z,15.44
2022-08-23T02:11:49.745Z,15.34
2022-08-23T02:14:20.341Z,15.23
2022-08-23T02:17:04.020Z,15.19
2022-08-23T02:19:32.897Z,15.16
2022-08-23T02:21:59.733Z,15.12
2022-08-23T02:24:27.118Z,15.11
2022-08-23T02:26:59.310Z,15.14
2022-08-23T02:29:29.818Z,15.17
2022-08-23T02:31:58.778Z,15.16
2022-08-23T02:34:39.751Z,15.11
2022-08-23T02:37:07.503Z,15.09
2022-08-23T02:39:34.643Z,15.08
2022-08-23T02:42:01.579Z,15.09
2022-08-23T02:44:34.712Z,15.08
2022-08-23T02:47:03.182Z,15.09
2022-08-23T02:49:30.325Z,15.09
2022-08-23T02:51:57.383Z,15.07
2022-08-23T02:54:24.643Z,15.00
2022-08-23T02:56:52.931Z,14.98
2022-08-23T02:59:20.182Z,15.02
2022-08-23T03:01:48.935Z,15.02
2022-08-23T03:04:23.142Z,15.01
2022-08-23T03:06:49.958Z,14.96
2022-08-23T03:09:17.224Z,14.91
2022-08-23T03:11:46.062Z,14.90
2022-08-23T03:14:13.180Z,14.87
2022-08-23T03:16:42.342Z,14.85
2022-08-23T03:19:10.917Z,14.79
2022-08-23T03:21:38.508Z,14.72
2022-08-23T03:24:10.056Z,14.74
2022-08-23T03:26:38.121Z,14.74
2022-08-23T03:29:05.245Z,14.77
2022-08-23T03:31:42.025Z,14.78
2022-08-23T03:34:12.915Z,14.80
2022-08-23T03:36:39.850Z,14.82
2022-08-23T03:39:07.126Z,14.84
2022-08-23T03:41:34.118Z,14.87
2022-08-23T03:44:00.860Z,14.83
2022-08-23T03:46:34.374Z,14.79
2022-08-23T03:49:04.187Z,14.73
2022-08-23T03:51:43.206Z,14.62
2022-08-23T03:54:10.405Z,14.49
2022-08-23T03:56:40.164Z,14.34
2022-08-23T03:59:11.503Z,14.21
2022-08-23T04:01:38.225Z,14.10
2022-08-23T04:04:05.222Z,14.08
2022-08-23T04:06:33.128Z,14.06
2022-08-23T04:09:01.177Z,14.09
2022-08-23T04:11:28.033Z,14.13
2022-08-23T04:14:03.375Z,14.14
2022-08-23T04:16:33.372Z,14.08
2022-08-23T04:19:00.739Z,14.00
2022-08-23T04:21:31.509Z,13.89
2022-08-23T04:23:58.747Z,13.84
2022-08-23T04:26:30.148Z,13.86
2022-08-23T04:28:57.111Z,13.85
2022-08-23T04:31:26.744Z,13.89
2022-08-23T04:33:55.609Z,13.96
2022-08-23T04:36:23.906Z,13.97
2022-08-23T04:38:52.186Z,14.00
2022-08-23T04:41:37.958Z,14.03
2022-08-23T04:44:06.075Z,13.99
2022-08-23T04:46:34.623Z,13.85
2022-08-23T04:49:03.850Z,13.77
2022-08-23T04:51:30.710Z,13.75
2022-08-23T04:53:57.388Z,13.80
2022-08-23T04:56:39.336Z,13.80
2022-08-23T04:59:09.017Z,13.85
2022-08-23T05:01:42.362Z,13.84
2022-08-23T05:04:09.458Z,13.86
2022-08-23T05:06:38.472Z,13.92
2022-08-23T05:09:05.628Z,13.97
2022-08-23T05:11:33.967Z,14.03
2022-08-23T05:14:00.870Z,14.07
2022-08-23T05:16:28.869Z,14.09
2022-08-23T05:19:03.757Z,14.16
2022-08-23T05:21:32.802Z,14.15
2022-08-23T05:24:00.300Z,14.18
2022-08-23T05:26:28.863Z,14.21
2022-08-23T05:28:55.524Z,14.21
2022-08-23T05:31:30.458Z,14.23
2022-08-23T05:33:59.579Z,14.28
2022-08-23T05:36:47.594Z,14.32
2022-08-23T05:39:28.737Z,14.36
2022-08-23T05:42:06.981Z,14.38
2022-08-23T05:44:36.756Z,14.44
2022-08-23T05:47:10.543Z,14.53
2022-08-23T05:49:47.583Z,14.62
2022-08-23T05:52:14.790Z,14.76
2022-08-23T05:54:43.239Z,14.89
2022-08-23T05:57:45.305Z,15.03
2022-08-23T06:00:15.477Z,15.12
2022-08-23T06:02:55.297Z,15.19
2022-08-23T06:05:22.430Z,15.22
2022-08-23T06:07:50.298Z,15.28
2022-08-23T06:10:20.747Z,15.37
2022-08-23T06:12:53.937Z,15.46
2022-08-23T06:15:21.153Z,15.59
2022-08-23T06:17:48.094Z,15.71
2022-08-23T06:20:16.583Z,15.83
2022-08-23T06:22:58.006Z,15.92
2022-08-23T06:25:24.899Z,16.09
2022-08-23T06:27:55.951Z,16.23
2022-08-23T06:30:23.294Z,16.37
2022-08-23T06:33:13.753Z,16.53
2022-08-23T06:35:47.838Z,16.66
2022-08-23T06:38:20.307Z,16.79
2022-08-23T06:41:12.374Z,16.92
2022-08-23T06:43:51.416Z,17.04
2022-08-23T06:46:21.717Z,17.20
2022-08-23T06:48:51.224Z,17.36
2022-08-23T06:51:23.620Z,17.54
2022-08-23T06:53:55.266Z,17.70
2022-08-23T06:56:42.155Z,17.88
2022-08-23T06:59:14.582Z,18.03
2022-08-23T07:02:12.816Z,18.18
2022-08-23T07:04:58.789Z,18.33
2022-08-23T07:07:45.147Z,18.50
2022-08-23T07:10:15.536Z,18.64
2022-08-23T07:12:42.922Z,18.78
2022-08-23T07:15:11.598Z,18.93
2022-08-23T07:17:39.736Z,19.04
2022-08-23T07:20:07.447Z,19.22
2022-08-23T07:22:36.558Z,19.41
2022-08-23T07:25:05.610Z,19.60
2022-08-23T07:27:33.675Z,19.79
2022-08-23T07:30:07.209Z,19.98
2022-08-23T07:32:36.008Z,20.17
2022-08-23T07:35:13.811Z,20.35
2022-08-23T07:37:42.915Z,20.52
2022-08-23T07:40:20.206Z,20.72
2022-08-23T07:42:48.344Z,20.84
2022-08-23T07:45:15.282Z,20.99
2022-08-23T07:47:50.134Z,21.20
2022-08-23T07:50:18.794Z,21.38
2022-08-23T07:52:46.177Z,21.48
2022-08-23T07:55:15.030Z,21.62
2022-08-23T07:58:00.129Z,21.59
2022-08-23T08:00:55.956Z,21.65
2022-08-23T08:03:35.924Z,21.83
2022-08-23T08:06:26.605Z,22.13
2022-08-23T08:08:53.558Z,22.33
2022-08-23T08:11:24.369Z,22.46
2022-08-23T08:13:52.060Z,22.48
2022-08-23T08:16:23.255Z,22.58
2022-08-23T08:18:51.351Z,22.60
2022-08-23T08:21:51.322Z,22.76
2022-08-23T08:24:35.977Z,22.97
2022-08-23T08:27:08.685Z,23.07
2022-08-23T08:29:35.441Z,23.19
2022-08-23T08:32:02.533Z,23.36
2022-08-23T08:34:29.623Z,23.49
2022-08-23T08:36:58.958Z,23.53
2022-08-23T08:39:30.062Z,23.58
2022-08-23T08:42:18.785Z,23.69
2022-08-23T08:44:52.217Z,23.85
2022-08-23T08:47:34.976Z,24.00
2022-08-23T08:50:09.698Z,24.04
2022-08-23T08:52:40.913Z,24.08
2022-08-23T08:55:19.659Z,24.19
2022-08-23T08:57:50.334Z,24.37
2022-08-23T09:00:19.893Z,24.48
2022-08-23T09:02:47.345Z,24.66
2022-08-23T09:05:16.990Z,24.82
2022-08-23T09:07:54.607Z,25.01
2022-08-23T09:10:44.826Z,25.11
2022-08-23T09:13:32.489Z,25.15
2022-08-23T09:16:13.614Z,25.32
2022-08-23T09:18:40.456Z,25.46
2022-08-23T09:21:09.602Z,25.55
2022-08-23T09:23:41.348Z,25.70
2022-08-23T09:26:19.709Z,25.92
2022-08-23T09:28:50.113Z,26.09
2022-08-23T09:31:38.859Z,26.14
2022-08-23T09:34:06.793Z,26.16
2022-08-23T09:36:48.604Z,26.28
2022-08-23T09:39:30.921Z,26.49
2022-08-23T09:42:02.289Z,26.65
2022-08-23T09:44:37.148Z,26.82
2022-08-23T09:47:11.712Z,26.98
2022-08-23T09:49:44.249Z,26.92
2022-08-23T09:52:21.980Z,26.99
2022-08-23T09:55:00.185Z,27.04
2022-08-23T09:57:30.015Z,27.07
2022-08-23T10:00:01.554Z,27.04
2022-08-23T10:02:39.574Z,26.98
2022-08-23T10:05:19.867Z,26.90
2022-08-23T10:07:55.500Z,26.83
2022-08-23T10:10:29.188Z,26.97
2022-08-23T10:13:00.895Z,27.05
2022-08-23T10:15:45.615Z,27.09
2022-08-23T10:18:24.821Z,27.11
2022-08-23T10:21:01.518Z,27.12
2022-08-23T10:23:42.470Z,27.24
2022-08-23T10:26:18.932Z,27.30
2022-08-23T10:29:08.752Z,27.22
2022-08-23T10:31:47.355Z,27.32
2022-08-23T10:34:27.334Z,27.39
2022-08-23T10:37:18.379Z,27.60
2022-08-23T10:39:52.914Z,27.74
2022-08-23T10:42:27.457Z,27.96
2022-08-23T10:45:01.408Z,27.96
2022-08-23T10:47:37.301Z,28.05
2022-08-23T10:50:09.095Z,28.10
2022-08-23T10:52:40.793Z,28.06
2022-08-23T10:55:24.555Z,28.01
2022-08-23T10:57:53.265Z,27.91
2022-08-23T11:00:24.848Z,28.03
2022-08-23T11:02:59.689Z,28.28
2022-08-23T11:05:35.832Z,28.45
2022-08-23T11:08:12.750Z,28.54
2022-08-23T11:10:56.070Z,28.47
2022-08-23T11:13:29.300Z,28.48
2022-08-23T11:15:59.516Z,28.67
2022-08-23T11:18:43.918Z,28.71
2022-08-23T11:21:44.317Z,28.50
2022-08-23T11:24:47.896Z,28.44
2022-08-23T11:27:26.478Z,28.46
2022-08-23T11:29:53.380Z,28.48
2022-08-23T11:32:36.319Z,28.55
2022-08-23T11:35:11.472Z,28.71
2022-08-23T11:37:56.949Z,28.92
2022-08-23T11:40:58.695Z,29.01
2022-08-23T11:43:38.178Z,28.90
2022-08-23T11:46:31.637Z,28.97
2022-08-23T11:49:49.799Z,29.04
2022-08-23T11:52:34.935Z,29.08
2022-08-23T11:55:24.295Z,28.99
2022-08-23T11:58:15.369Z,28.98
2022-08-23T12:00:54.797Z,28.90
2022-08-23T12:03:25.695Z,28.88
2022-08-23T12:06:34.532Z,29.03
2022-08-23T12:09:11.927Z,29.10
2022-08-23T12:12:12.744Z,28.95
2022-08-23T12:14:52.164Z,28.93
2022-08-23T12:17:56.671Z,28.94
2022-08-23T12:20:30.546Z,28.79
2022-08-23T12:23:05.737Z,28.74
2022-08-23T12:25:34.575Z,28.69
2022-08-23T12:28:11.732Z,28.74
2022-08-23T12:30:50.393Z,28.79
2022-08-23T12:33:30.395Z,28.82
2022-08-23T12:36:12.461Z,28.77
2022-08-23T12:38:52.281Z,28.82
2022-08-23T12:41:23.237Z,28.89
2022-08-23T12:44:00.110Z,28.95
2022-08-23T12:46:34.387Z,29.02
2022-08-23T12:49:01.502Z,29.07
2022-08-23T12:51:28.621Z,29.09
2022-08-23T12:53:56.433Z,29.10
2022-08-23T12:56:31.555Z,29.06
2022-08-23T12:59:04.882Z,29.19
2022-08-23T13:01:36.630Z,29.28
2022-08-23T13:04:09.234Z,29.30
2022-08-23T13:06:42.301Z,29.29
2022-08-23T13:09:15.185Z,29.44
2022-08-23T13:11:44.834Z,29.47
2022-08-23T13:14:26.425Z,29.47
2022-08-23T13:17:11.872Z,29.36
2022-08-23T13:19:38.638Z,29.16
2022-08-23T13:22:13.878Z,29.03
2022-08-23T13:24:42.665Z,28.92
2022-08-23T13:27:21.871Z,28.92
2022-08-23T13:29:53.607Z,28.97
2022-08-23T13:32:33.218Z,28.91
2022-08-23T13:35:22.578Z,28.88
2022-08-23T13:37:50.261Z,28.83
2022-08-23T13:40:23.732Z,28.88
2022-08-23T13:42:57.003Z,28.92
2022-08-23T13:45:27.190Z,28.83
2022-08-23T13:47:57.262Z,28.72
2022-08-23T13:50:26.317Z,28.70
2022-08-23T13:55:42.625Z,28.71
2022-08-23T13:58:12.603Z,28.73
2022-08-23T14:00:39.646Z,28.72
2022-08-23T14:03:12.782Z,28.62
2022-08-23T14:05:39.440Z,28.56
2022-08-23T14:08:06.086Z,28.55
2022-08-23T14:10:33.267Z,28.60
2022-08-23T14:13:02.198Z,28.60
2022-08-23T14:18:17.061Z,28.48
2022-08-23T14:20:45.723Z,28.44
2022-08-23T14:23:13.344Z,28.43
2022-08-23T14:25:40.085Z,28.35
2022-08-23T14:28:06.710Z,28.32
2022-08-23T14:30:36.641Z,28.33
2022-08-23T14:33:04.683Z,28.33
2022-08-23T14:35:31.758Z,28.28
2022-08-23T14:38:05.644Z,28.27
2022-08-23T14:40:33.133Z,28.25
2022-08-23T14:42:59.814Z,28.22
2022-08-23T14:45:27.285Z,28.27
2022-08-23T14:47:55.232Z,28.35
2022-08-23T14:50:22.189Z,28.33
2022-08-23T14:52:48.881Z,28.32
2022-08-23T14:55:15.777Z,28.32
2022-08-23T14:57:42.689Z,28.26
2022-08-23T15:00:14.285Z,28.24
2022-08-23T15:02:44.411Z,28.22
2022-08-23T15:05:13.386Z,28.23
2022-08-23T15:07:40.027Z,28.24
2022-08-23T15:10:09.780Z,28.24
2022-08-23T15:15:23.578Z,28.22
2022-08-23T15:17:54.740Z,28.13
2022-08-23T15:20:25.202Z,28.12
2022-08-23T15:22:55.395Z,28.10
2022-08-23T15:25:23.395Z,28.11
2022-08-23T15:27:50.996Z,28.12
2022-08-23T15:30:18.134Z,28.12
2022-08-23T15:32:52.593Z,28.11
2022-08-23T15:35:25.907Z,28.05
2022-08-23T15:37:53.557Z,28.00
2022-08-23T15:40:20.631Z,27.96
2022-08-23T15:42:47.332Z,27.90
2022-08-23T15:45:14.413Z,27.87
2022-08-23T15:47:47.763Z,27.85
2022-08-23T15:50:16.455Z,27.84
2022-08-23T15:52:44.724Z,27.78
2022-08-23T15:55:12.067Z,27.73
2022-08-23T15:57:43.017Z,27.68
2022-08-23T16:00:11.540Z,27.67
2022-08-23T16:03:14.078Z,27.61
2022-08-23T16:05:28.081Z,27.54
2022-08-23T16:07:57.724Z,27.55
2022-08-23T16:10:25.088Z,27.49
2022-08-23T16:12:54.737Z,27.45
2022-08-23T16:15:21.407Z,27.45
2022-08-23T16:17:48.545Z,27.45
2022-08-23T16:20:15.390Z,27.45
2022-08-23T16:22:42.068Z,27.44
2022-08-23T16:25:10.809Z,27.40
2022-08-23T16:27:37.658Z,27.40
2022-08-23T16:30:09.935Z,27.40
2022-08-23T16:41:22.352Z,27.27
2022-08-23T16:43:50.037Z,27.18
2022-08-23T16:46:17.383Z,27.11
2022-08-23T16:48:45.170Z,27.11
2022-08-23T16:51:12.547Z,27.05
2022-08-23T16:53:39.404Z,27.02
2022-08-23T16:56:07.652Z,27.01
2022-08-23T16:58:37.249Z,27.01
2022-08-23T17:01:04.553Z,26.98
2022-08-23T17:03:31.285Z,26.95
2022-08-23T17:05:57.943Z,26.93
2022-08-23T17:08:24.589Z,26.86
2022-08-23T17:10:51.297Z,26.83
2022-08-23T17:13:18.793Z,26.80
2022-08-23T17:15:46.818Z,26.77
2022-08-23T17:18:13.426Z,26.71
2022-08-23T17:20:40.468Z,26.68
2022-08-23T17:23:08.056Z,26.63
2022-08-23T17:25:35.979Z,26.59
2022-08-23T17:28:04.501Z,26.50
2022-08-23T17:30:32.013Z,26.44
2022-08-23T17:33:00.087Z,26.37
2022-08-23T17:35:29.498Z,26.25
2022-08-23T17:38:01.793Z,26.06
2022-08-23T17:40:30.960Z,25.94
2022-08-23T17:42:59.496Z,25.80
2022-08-23T17:45:26.829Z,25.68
2022-08-23T17:47:54.038Z,25.58
2022-08-23T17:50:22.255Z,25.48
2022-08-23T17:52:50.877Z,25.38
2022-08-23T17:55:18.347Z,25.26
2022-08-23T17:57:45.813Z,25.11
2022-08-23T18:00:15.936Z,25.00
2022-08-23T18:02:43.253Z,24.88
2022-08-23T18:05:10.578Z,24.75
2022-08-23T18:07:39.969Z,24.61
2022-08-23T18:10:08.807Z,24.44
2022-08-23T18:12:35.602Z,24.26
2022-08-23T18:15:04.422Z,24.09
2022-08-23T18:17:32.100Z,23.94
2022-08-23T18:19:58.993Z,23.78
2022-08-23T18:22:26.402Z,23.63
2022-08-23T18:24:54.488Z,23.45
2022-08-23T18:27:40.304Z,23.29
2022-08-23T18:30:09.120Z,23.15
2022-08-23T18:32:35.811Z,23.07
2022-08-23T18:35:02.775Z,23.05
2022-08-23T18:37:29.508Z,23.07
2022-08-23T18:39:57.556Z,23.06
2022-08-23T18:42:24.754Z,23.01
2022-08-23T18:44:51.509Z,22.95
2022-08-23T18:47:18.315Z,22.91
2022-08-23T18:49:45.028Z,22.88
2022-08-23T18:52:12.356Z,22.84
2022-08-23T18:54:39.108Z,22.72
2022-08-23T18:57:07.168Z,22.60
2022-08-23T18:59:33.861Z,22.46
2022-08-23T19:02:00.726Z,22.34
2022-08-23T19:04:27.911Z,22.22
2022-08-23T19:06:54.623Z,22.08
2022-08-23T19:09:21.935Z,21.89
2022-08-23T19:11:49.412Z,21.75
2022-08-23T19:14:17.509Z,21.64
2022-08-23T19:16:48.169Z,21.55
2022-08-23T19:19:15.926Z,21.46
2022-08-23T19:21:42.765Z,21.42
2022-08-23T19:24:09.439Z,21.37
2022-08-23T19:26:36.811Z,21.32
2022-08-23T19:29:07.660Z,21.28
2022-08-23T19:31:41.708Z,21.25
2022-08-23T19:34:08.981Z,21.21
2022-08-23T19:36:46.301Z,21.18
2022-08-23T19:39:16.460Z,21.12
2022-08-23T19:41:43.783Z,21.04
2022-08-23T19:44:10.894Z,20.87
2022-08-23T19:46:42.071Z,20.62
2022-08-23T19:49:09.920Z,20.39
2022-08-23T19:51:37.281Z,20.21
2022-08-23T19:54:11.027Z,20.06
2022-08-23T19:56:41.265Z,19.97
2022-08-23T19:59:10.454Z,19.96
2022-08-23T20:01:37.343Z,19.91
2022-08-23T20:04:05.990Z,19.75
2022-08-23T20:06:32.648Z,19.62
2022-08-23T20:08:59.767Z,19.56
2022-08-23T20:11:27.843Z,19.54
2022-08-23T20:13:56.541Z,19.57
2022-08-23T20:16:23.930Z,19.67
2022-08-23T20:18:51.502Z,19.76
2022-08-23T20:21:19.533Z,19.82
2022-08-23T20:24:04.157Z,19.77
2022-08-23T20:26:33.914Z,19.70
2022-08-23T20:29:01.151Z,19.61
2022-08-23T20:31:30.546Z,19.55
2022-08-23T20:33:57.837Z,19.54
2022-08-23T20:36:28.102Z,19.53
2022-08-23T20:38:58.005Z,19.50
2022-08-23T20:41:25.695Z,19.49
2022-08-23T20:43:54.828Z,19.47
2022-08-23T20:46:21.719Z,19.49
2022-08-23T20:48:49.360Z,19.51
2022-08-23T20:51:15.990Z,19.53
2022-08-23T20:53:45.100Z,19.51
2022-08-23T20:56:11.993Z,19.46
2022-08-23T20:58:39.069Z,19.34
2022-08-23T21:01:09.332Z,19.16
2022-08-23T21:03:38.410Z,19.02
2022-08-23T21:06:08.480Z,18.98
2022-08-23T21:08:35.680Z,18.95
2022-08-23T21:11:11.266Z,18.99
2022-08-23T21:13:42.226Z,19.07
2022-08-23T21:16:08.899Z,19.14
2022-08-23T21:18:35.581Z,19.18
2022-08-23T21:21:02.306Z,19.11
2022-08-23T21:23:28.985Z,18.99
2022-08-23T21:25:56.910Z,18.97
2022-08-23T21:28:26.176Z,18.95
2022-08-23T21:30:53.465Z,18.93
2022-08-23T21:33:25.185Z,18.94
2022-08-23T21:35:51.830Z,18.96
2022-08-23T21:38:19.880Z,19.00
2022-08-23T21:40:46.537Z,19.06
2022-08-23T21:43:13.164Z,19.06
2022-08-23T21:45:41.561Z,18.94
2022-08-23T21:48:09.960Z,18.73
2022-08-23T21:50:36.774Z,18.51
2022-08-23T21:53:03.790Z,18.33
2022-08-23T21:55:36.883Z,18.20
2022-08-23T21:58:03.845Z,18.09
2022-08-23T22:00:30.953Z,17.98
2022-08-23T22:02:59.191Z,17.91
2022-08-23T22:05:26.786Z,17.84
2022-08-23T22:07:53.959Z,17.77
2022-08-23T22:10:23.375Z,17.75
2022-08-23T22:12:50.479Z,17.75
2022-08-23T22:15:17.517Z,17.74
2022-08-23T22:17:44.192Z,17.72
2022-08-23T22:20:13.623Z,17.70
2022-08-23T22:22:40.445Z,17.66
2022-08-23T22:25:08.712Z,17.61
2022-08-23T22:27:35.706Z,17.58
2022-08-23T22:30:02.354Z,17.56
2022-08-23T22:32:29.253Z,17.54
2022-08-23T22:34:56.198Z,17.54
2022-08-23T22:37:24.382Z,17.57
2022-08-23T22:39:51.092Z,17.54
2022-08-23T22:42:18.102Z,17.56
2022-08-23T22:44:44.729Z,17.55
2022-08-23T22:47:11.876Z,17.48
2022-08-23T22:49:38.890Z,17.31
2022-08-23T22:52:05.764Z,17.10
2022-08-23T22:54:33.880Z,16.97
2022-08-23T22:57:00.561Z,16.92
2022-08-23T22:59:27.614Z,16.92
2022-08-23T23:01:59.502Z,16.97
2022-08-23T23:04:30.097Z,17.02
2022-08-23T23:06:57.508Z,17.08
2022-08-23T23:09:25.098Z,17.13
2022-08-23T23:11:53.643Z,17.20
2022-08-23T23:14:21.338Z,17.26
2022-08-23T23:16:50.019Z,17.26
2022-08-23T23:19:35.971Z,17.25
2022-08-23T23:22:03.234Z,17.22
2022-08-23T23:24:32.635Z,17.20
2022-08-23T23:27:02.378Z,17.14
2022-08-23T23:29:30.445Z,17.13
2022-08-23T23:31:57.434Z,17.17
2022-08-23T23:34:24.189Z,17.21
2022-08-23T23:36:56.153Z,17.24
2022-08-23T23:39:22.952Z,17.25
2022-08-23T23:41:49.662Z,17.23
2022-08-23T23:44:24.374Z,17.17
2022-08-23T23:46:58.414Z,17.00
2022-08-23T23:49:32.920Z,16.87
2022-08-23T23:52:00.945Z,16.72
2022-08-23T23:54:27.580Z,16.64
2022-08-23T23:56:54.590Z,16.56
2022-08-23T23:59:22.550Z,16.48
